createdAt,value
2018-07-21T00:01:22.635Z,51.70
2018-07-21T00:02:22.624Z,51.99
2018-07-21T00:04:15.606Z,51.80
2018-07-21T00:05:15.566Z,51.77
2018-07-21T00:07:08.581Z,51.87
2018-07-21T00:08:08.565Z,52.06
2018-07-21T00:10:01.426Z,51.68
2018-07-21T00:11:01.388Z,51.68
2018-07-21T00:12:54.425Z,51.77
2018-07-21T00:13:54.364Z,51.77
2018-07-21T00:15:47.384Z,52.16
2018-07-21T00:16:47.359Z,52.16
2018-07-21T00:18:40.194Z,52.25
2018-07-21T00:19:40.146Z,52.64
2018-07-21T00:21:33.191Z,53.13
2018-07-21T00:22:33.151Z,53.13
2018-07-21T00:24:26.181Z,52.73
2018-07-21T00:25:26.124Z,52.45
2018-07-21T00:27:19.286Z,52.55
2018-07-21T00:28:19.268Z,53.09
2018-07-21T00:30:12.300Z,53.96
2018-07-21T00:31:12.254Z,53.77
2018-07-21T00:33:05.504Z,54.16
2018-07-21T00:34:05.410Z,54.54
2018-07-21T00:35:58.661Z,54.74
2018-07-21T00:36:58.610Z,54.83
2018-07-21T00:38:51.429Z,54.71
2018-07-21T00:39:51.395Z,55.51
2018-07-21T00:41:44.317Z,55.99
2018-07-21T00:42:44.184Z,55.48
2018-07-21T00:44:37.206Z,55.96
2018-07-21T00:45:37.184Z,56.44
2018-07-21T00:47:30.235Z,56.82
2018-07-21T00:48:30.175Z,56.82
2018-07-21T00:50:23.070Z,57.21
2018-07-21T00:51:23.000Z,57.89
2018-07-21T00:53:16.047Z,58.27
2018-07-21T00:54:16.011Z,58.56
2018-07-21T00:56:09.051Z,58.72
2018-07-21T00:57:09.062Z,59.20
2018-07-21T00:59:01.864Z,59.40
2018-07-21T01:00:01.809Z,59.49
2018-07-21T01:01:54.835Z,59.78
2018-07-21T01:02:54.817Z,60.17
2018-07-21T01:04:47.840Z,59.88
2018-07-21T01:05:47.791Z,60.17
2018-07-21T01:07:40.967Z,60.27
2018-07-21T01:08:40.941Z,59.88
2018-07-21T01:10:33.968Z,60.65
2018-07-21T01:11:33.930Z,60.75
2018-07-21T01:13:27.145Z,61.42
2018-07-21T01:14:27.052Z,61.04
2018-07-21T01:16:20.102Z,60.94
2018-07-21T01:17:20.042Z,61.22
2018-07-21T01:19:13.076Z,61.13
2018-07-21T01:20:13.045Z,61.22
2018-07-21T01:22:05.856Z,61.32
2018-07-21T01:23:05.820Z,61.61
2018-07-21T01:24:58.843Z,62.09
2018-07-21T01:25:58.807Z,62.57
2018-07-21T01:27:51.942Z,61.90
2018-07-21T01:28:51.800Z,62.48
2018-07-21T01:30:44.672Z,62.96
2018-07-21T01:31:44.639Z,63.06
2018-07-21T01:33:37.682Z,62.29
2018-07-21T01:34:37.637Z,62.67
2018-07-21T01:36:30.665Z,62.57
2018-07-21T01:37:30.617Z,62.57
2018-07-21T01:39:23.517Z,62.57
2018-07-21T01:40:23.464Z,62.38
2018-07-21T01:42:16.531Z,62.19
2018-07-21T01:43:16.488Z,62.38
2018-07-21T01:45:09.982Z,62.87
2018-07-21T01:46:09.910Z,62.35
2018-07-21T01:48:02.954Z,62.06
2018-07-21T01:49:02.914Z,62.26
2018-07-21T01:50:55.724Z,62.93
2018-07-21T01:51:55.684Z,62.74
2018-07-21T01:53:48.862Z,62.54
2018-07-21T01:54:48.818Z,63.70
2018-07-21T01:56:41.853Z,63.22
2018-07-21T01:57:41.899Z,62.93
2018-07-21T01:59:34.875Z,63.60
2018-07-21T02:00:34.822Z,63.89
2018-07-21T02:02:27.668Z,64.18
2018-07-21T02:03:27.634Z,64.25
2018-07-21T02:05:20.666Z,64.37
2018-07-21T02:06:20.735Z,65.01
2018-07-21T02:08:13.925Z,64.34
2018-07-21T02:09:13.750Z,65.11
2018-07-21T02:11:06.783Z,64.37
2018-07-21T02:12:06.730Z,64.25
2018-07-21T02:13:59.741Z,65.24
2018-07-21T02:14:59.713Z,64.92
2018-07-21T02:16:52.625Z,65.05
2018-07-21T02:17:52.559Z,65.81
2018-07-21T02:19:45.640Z,65.11
2018-07-21T02:20:45.583Z,65.40
2018-07-21T02:22:38.408Z,65.50
2018-07-21T02:23:38.413Z,65.69
2018-07-21T02:25:31.700Z,65.11
2018-07-21T02:26:31.650Z,65.50
2018-07-21T02:28:24.676Z,65.78
2018-07-21T02:29:24.655Z,65.30
2018-07-21T02:31:17.483Z,65.01
2018-07-21T02:32:17.441Z,64.73
2018-07-21T02:34:10.257Z,64.43
2018-07-21T02:35:10.212Z,65.59
2018-07-21T02:37:03.294Z,64.34
2018-07-21T02:38:03.261Z,65.30
2018-07-21T02:39:56.300Z,64.43
2018-07-21T02:40:56.244Z,64.34
2018-07-21T02:42:49.071Z,63.76
2018-07-21T02:43:49.027Z,63.95
2018-07-21T02:45:42.111Z,64.15
2018-07-21T02:46:42.022Z,63.76
2018-07-21T02:48:35.065Z,65.50
2018-07-21T02:49:35.006Z,65.20
2018-07-21T02:51:28.176Z,65.59
2018-07-21T02:52:28.150Z,65.69
2018-07-21T02:54:21.397Z,65.59
2018-07-21T02:55:21.342Z,66.36
2018-07-21T02:57:14.266Z,66.74
2018-07-21T02:58:14.217Z,66.55
2018-07-21T03:00:07.271Z,66.81
2018-07-21T03:01:07.215Z,67.00
2018-07-21T03:03:00.244Z,67.48
2018-07-21T03:04:00.220Z,67.29
2018-07-21T03:05:53.100Z,67.77
2018-07-21T03:06:53.056Z,67.68
2018-07-21T03:08:46.060Z,67.68
2018-07-21T03:09:46.032Z,67.96
2018-07-21T03:11:38.859Z,68.44
2018-07-21T03:12:38.815Z,68.44
2018-07-21T03:14:32.124Z,68.35
2018-07-21T03:15:32.096Z,68.25
2018-07-21T03:17:25.146Z,68.35
2018-07-21T03:18:25.096Z,68.73
2018-07-21T03:20:18.337Z,68.44
2018-07-21T03:21:18.232Z,68.06
2018-07-21T03:23:11.255Z,68.63
2018-07-21T03:24:11.237Z,68.73
2018-07-21T03:26:04.275Z,68.44
2018-07-21T03:27:04.216Z,68.63
2018-07-21T03:28:57.027Z,68.73
2018-07-21T03:29:56.992Z,68.73
2018-07-21T03:31:49.862Z,68.73
2018-07-21T03:32:49.771Z,68.70
2018-07-21T03:34:42.590Z,68.70
2018-07-21T03:35:42.558Z,69.27
2018-07-21T03:37:35.597Z,69.37
2018-07-21T03:38:35.547Z,69.66
2018-07-21T03:40:28.761Z,69.56
2018-07-21T03:41:28.697Z,69.66
2018-07-21T03:43:21.721Z,69.66
2018-07-21T03:44:21.758Z,69.66
2018-07-21T03:46:14.831Z,70.14
2018-07-21T03:47:14.788Z,69.85
2018-07-21T03:49:07.846Z,69.85
2018-07-21T03:50:07.767Z,69.75
2018-07-21T03:52:00.797Z,69.95
2018-07-21T03:53:00.758Z,70.14
2018-07-21T03:54:53.633Z,70.72
2018-07-21T03:55:53.590Z,70.72
2018-07-21T03:57:46.696Z,70.72
2018-07-21T03:58:46.601Z,70.62
2018-07-21T04:00:39.679Z,70.72
2018-07-21T04:01:39.571Z,70.72
2018-07-21T04:03:32.434Z,70.72
2018-07-21T04:04:32.378Z,70.62
2018-07-21T04:06:25.401Z,70.33
2018-07-21T04:07:25.358Z,70.62
2018-07-21T04:09:18.423Z,71.48
2018-07-21T04:10:18.374Z,71.00
2018-07-21T04:12:11.332Z,71.19
2018-07-21T04:13:11.308Z,71.39
2018-07-21T04:15:04.322Z,71.48
2018-07-21T04:16:04.279Z,71.48
2018-07-21T04:17:57.318Z,71.87
2018-07-21T04:18:57.268Z,71.77
2018-07-21T04:20:50.195Z,71.83
2018-07-21T04:21:50.141Z,72.12
2018-07-21T04:23:43.234Z,72.50
2018-07-21T04:24:43.185Z,72.41
2018-07-21T04:26:36.210Z,72.50
2018-07-21T04:27:36.180Z,72.50
2018-07-21T04:29:29.245Z,72.79
2018-07-21T04:30:29.205Z,73.27
2018-07-21T04:32:22.218Z,72.99
2018-07-21T04:33:22.190Z,73.37
2018-07-21T04:35:15.439Z,73.37
2018-07-21T04:36:15.301Z,73.37
2018-07-21T04:38:08.318Z,74.33
2018-07-21T04:39:08.283Z,73.94
2018-07-21T04:41:01.319Z,74.71
2018-07-21T04:42:01.264Z,74.62
2018-07-21T04:43:54.094Z,75.20
2018-07-21T04:44:54.049Z,75.48
2018-07-21T04:46:47.093Z,75.29
2018-07-21T04:47:47.035Z,75.48
2018-07-21T04:49:40.184Z,75.38
2018-07-21T04:50:40.103Z,75.20
2018-07-21T04:52:32.921Z,75.29
2018-07-21T04:53:32.890Z,76.25
2018-07-21T04:55:25.955Z,75.67
2018-07-21T04:56:25.897Z,75.77
2018-07-21T04:58:18.953Z,75.67
2018-07-21T04:59:18.916Z,75.96
2018-07-21T05:01:11.755Z,75.96
2018-07-21T05:02:11.688Z,75.57
2018-07-21T05:04:04.706Z,75.87
2018-07-21T05:05:04.672Z,75.96
2018-07-21T05:06:57.511Z,76.15
2018-07-21T05:07:57.462Z,76.06
2018-07-21T05:09:50.281Z,76.15
2018-07-21T05:10:50.250Z,75.77
2018-07-21T05:12:43.487Z,75.87
2018-07-21T05:13:43.391Z,75.77
2018-07-21T05:15:36.454Z,75.10
2018-07-21T05:16:36.399Z,75.10
2018-07-21T05:18:29.237Z,75.38
2018-07-21T05:19:29.190Z,75.96
2018-07-21T05:21:22.021Z,75.48
2018-07-21T05:22:21.964Z,75.77
2018-07-21T05:24:14.804Z,75.38
2018-07-21T05:25:14.759Z,75.29
2018-07-21T05:27:07.782Z,75.23
2018-07-21T05:28:07.750Z,75.32
2018-07-21T05:30:00.776Z,75.52
2018-07-21T05:31:00.730Z,75.20
2018-07-21T05:32:53.652Z,75.71
2018-07-21T05:33:53.592Z,75.71
2018-07-21T05:35:46.626Z,74.94
2018-07-21T05:36:46.593Z,75.32
2018-07-21T05:38:39.620Z,75.13
2018-07-21T05:39:39.586Z,75.13
2018-07-21T05:41:32.420Z,75.62
2018-07-21T05:42:32.358Z,75.52
2018-07-21T05:44:25.388Z,75.04
2018-07-21T05:45:25.348Z,75.42
2018-07-21T05:47:18.392Z,75.62
2018-07-21T05:48:18.344Z,75.71
2018-07-21T05:50:11.532Z,75.71
2018-07-21T05:51:11.471Z,75.71
2018-07-21T05:53:04.552Z,75.32
2018-07-21T05:54:04.567Z,75.13
2018-07-21T05:55:57.637Z,74.94
2018-07-21T05:56:57.602Z,74.46
2018-07-21T05:58:50.648Z,75.07
2018-07-21T05:59:50.588Z,74.98
2018-07-21T06:01:43.611Z,75.07
2018-07-21T06:02:43.643Z,75.56
2018-07-21T06:04:36.656Z,75.07
2018-07-21T06:05:36.607Z,75.56
2018-07-21T06:07:29.644Z,75.17
2018-07-21T06:08:29.618Z,75.46
2018-07-21T06:10:22.826Z,75.75
2018-07-21T06:11:22.752Z,75.56
2018-07-21T06:13:15.790Z,76.04
2018-07-21T06:14:15.746Z,76.04
2018-07-21T06:16:08.814Z,75.17
2018-07-21T06:17:08.900Z,76.04
2018-07-21T06:19:01.791Z,75.46
2018-07-21T06:20:01.761Z,75.37
2018-07-21T06:21:54.609Z,75.37
2018-07-21T06:22:54.542Z,75.75
2018-07-21T06:24:47.597Z,75.46
2018-07-21T06:25:47.549Z,75.17
2018-07-21T06:27:40.365Z,75.27
2018-07-21T06:28:40.333Z,75.27
2018-07-21T06:30:33.438Z,75.75
2018-07-21T06:31:33.317Z,75.94
2018-07-21T06:33:26.348Z,75.31
2018-07-21T06:34:26.299Z,75.31
2018-07-21T06:36:19.136Z,74.82
2018-07-21T06:37:19.073Z,74.63
2018-07-21T06:39:12.093Z,74.25
2018-07-21T06:40:12.062Z,74.73
2018-07-21T06:42:05.098Z,74.25
2018-07-21T06:43:05.100Z,74.15
2018-07-21T06:44:58.255Z,74.48
2018-07-21T06:45:58.175Z,73.32
2018-07-21T06:47:51.224Z,73.32
2018-07-21T06:48:51.159Z,73.42
2018-07-21T06:50:44.303Z,73.32
2018-07-21T06:51:44.254Z,73.42
2018-07-21T06:53:37.308Z,72.84
2018-07-21T06:54:37.257Z,73.16
2018-07-21T06:56:30.280Z,72.68
2018-07-21T06:57:30.263Z,71.81
2018-07-21T06:59:23.100Z,71.72
2018-07-21T07:00:23.046Z,71.72
2018-07-21T07:02:15.988Z,72.20
2018-07-21T07:03:15.886Z,72.20
2018-07-21T07:05:08.888Z,71.72
2018-07-21T07:06:08.866Z,72.01
2018-07-21T07:08:01.907Z,71.43
2018-07-21T07:09:01.845Z,71.37
2018-07-21T07:10:54.681Z,71.28
2018-07-21T07:11:54.635Z,71.34
2018-07-21T07:13:47.466Z,71.66
2018-07-21T07:14:47.415Z,71.76
2018-07-21T07:16:40.450Z,71.76
2018-07-21T07:17:40.445Z,70.79
2018-07-21T07:19:33.703Z,71.56
2018-07-21T07:20:33.560Z,70.60
2018-07-21T07:22:26.593Z,71.18
2018-07-21T07:23:26.564Z,70.21
2018-07-21T07:25:19.716Z,70.41
2018-07-21T07:26:19.665Z,70.60
2018-07-21T07:28:12.704Z,71.08
2018-07-21T07:29:12.675Z,70.83
2018-07-21T07:31:05.715Z,69.77
2018-07-21T07:32:05.661Z,69.19
2018-07-21T07:33:58.620Z,68.99
2018-07-21T07:34:58.560Z,68.80
2018-07-21T07:36:51.585Z,68.45
2018-07-21T07:37:51.546Z,68.45
2018-07-21T07:39:44.980Z,67.30
2018-07-21T07:40:44.922Z,67.78
2018-07-21T07:42:38.023Z,67.58
2018-07-21T07:43:37.986Z,66.85
2018-07-21T07:45:31.218Z,67.62
2018-07-21T07:46:31.105Z,67.52
2018-07-21T07:48:24.117Z,66.94
2018-07-21T07:49:24.089Z,67.43
2018-07-21T07:51:16.911Z,67.33
2018-07-21T07:52:16.879Z,66.75
2018-07-21T07:54:09.905Z,66.69
2018-07-21T07:55:09.876Z,66.69
2018-07-21T07:57:02.718Z,66.59
2018-07-21T07:58:02.653Z,65.91
2018-07-21T07:59:55.677Z,66.40
2018-07-21T08:00:55.647Z,66.05
2018-07-21T08:02:48.941Z,65.47
2018-07-21T08:03:48.790Z,65.66
2018-07-21T08:05:41.808Z,65.47
2018-07-21T08:06:41.779Z,64.11
2018-07-21T08:08:34.834Z,64.72
2018-07-21T08:09:34.802Z,63.95
2018-07-21T08:11:27.657Z,63.76
2018-07-21T08:12:27.627Z,63.28
2018-07-21T08:14:20.643Z,64.92
2018-07-21T08:15:20.608Z,63.28
2018-07-21T08:17:13.438Z,64.05
2018-07-21T08:18:13.449Z,63.40
2018-07-21T08:20:06.616Z,63.11
2018-07-21T08:21:06.540Z,61.47
2018-07-21T08:22:59.583Z,61.66
2018-07-21T08:23:59.546Z,61.86
2018-07-21T08:25:52.777Z,62.53
2018-07-21T08:26:52.729Z,61.69
2018-07-21T08:28:45.752Z,60.34
2018-07-21T08:29:45.712Z,61.02
2018-07-21T08:31:38.724Z,59.47
2018-07-21T08:32:38.706Z,60.82
2018-07-21T08:34:31.612Z,58.44
2018-07-21T08:35:31.506Z,58.31
2018-07-21T08:37:24.528Z,59.21
2018-07-21T08:38:24.489Z,57.86
2018-07-21T08:40:17.522Z,56.88
2018-07-21T08:41:17.479Z,55.05
2018-07-21T08:43:10.334Z,54.66
2018-07-21T08:44:10.302Z,55.05
2018-07-21T08:46:03.343Z,54.75
2018-07-21T08:47:03.292Z,53.11
2018-07-21T08:48:56.334Z,52.36
2018-07-21T08:49:56.338Z,52.08
2018-07-21T08:51:49.474Z,51.30
2018-07-21T08:52:49.434Z,51.01
2018-07-21T08:54:42.507Z,50.52
2018-07-21T08:55:42.534Z,50.72
2018-07-21T08:57:35.689Z,51.30
2018-07-21T08:58:35.643Z,51.30
2018-07-21T09:00:28.674Z,50.45
2018-07-21T09:01:28.645Z,49.87
2018-07-21T09:03:21.901Z,49.19
2018-07-21T09:04:21.782Z,49.77
2018-07-21T09:06:14.854Z,48.71
2018-07-21T09:07:14.790Z,49.00
2018-07-21T09:09:07.975Z,48.90
2018-07-21T09:10:07.944Z,49.19
2018-07-21T09:12:01.048Z,48.93
2018-07-21T09:13:01.053Z,47.77
2018-07-21T09:14:54.208Z,48.15
2018-07-21T09:15:54.134Z,47.38
2018-07-21T09:17:47.208Z,47.38
2018-07-21T09:18:47.131Z,47.79
2018-07-21T09:20:40.180Z,47.69
2018-07-21T09:21:40.163Z,47.77
2018-07-21T09:23:33.056Z,48.08
2018-07-21T09:24:32.981Z,47.98
2018-07-21T09:26:26.010Z,46.82
2018-07-21T09:27:25.988Z,47.30
2018-07-21T09:29:19.038Z,46.43
2018-07-21T09:30:18.975Z,46.82
2018-07-21T09:32:12.175Z,46.04
2018-07-21T09:33:11.797Z,45.95
2018-07-21T09:35:04.846Z,45.37
2018-07-21T09:36:04.795Z,44.59
2018-07-21T09:37:57.841Z,45.20
2018-07-21T09:38:57.821Z,44.90
2018-07-21T09:40:50.750Z,45.29
2018-07-21T09:41:50.697Z,44.61
2018-07-21T09:43:43.751Z,45.41
2018-07-21T09:44:43.708Z,44.24
2018-07-21T09:46:36.737Z,44.64
2018-07-21T09:47:36.710Z,44.34
2018-07-21T09:49:29.600Z,44.24
2018-07-21T09:50:29.524Z,44.15
2018-07-21T09:52:22.560Z,44.15
2018-07-21T09:53:22.562Z,44.73
2018-07-21T09:55:15.590Z,45.17
2018-07-21T09:56:15.536Z,44.88
2018-07-21T09:58:08.445Z,45.20
2018-07-21T09:59:08.417Z,45.10
2018-07-21T10:01:01.539Z,43.64
2018-07-21T10:02:01.415Z,44.03
2018-07-21T10:03:54.257Z,44.90
2018-07-21T10:04:54.211Z,44.32
2018-07-21T10:06:47.055Z,43.74
2018-07-21T10:07:47.011Z,43.59
2018-07-21T10:09:39.973Z,41.28
2018-07-21T10:10:39.927Z,41.06
2018-07-21T10:12:32.976Z,40.66
2018-07-21T10:13:32.939Z,39.31
2018-07-21T10:15:26.036Z,37.04
2018-07-21T10:16:25.985Z,35.86
2018-07-21T10:18:18.808Z,38.01
2018-07-21T10:19:18.791Z,39.20
2018-07-21T10:21:11.837Z,35.98
2018-07-21T10:22:11.840Z,35.31
2018-07-21T10:24:04.846Z,34.78
2018-07-21T10:25:04.796Z,33.05
2018-07-21T10:26:57.642Z,31.80
2018-07-21T10:27:57.622Z,31.42
2018-07-21T10:29:50.480Z,31.24
2018-07-21T10:30:50.440Z,30.77
2018-07-21T10:32:43.475Z,29.50
2018-07-21T10:33:43.498Z,29.03
2018-07-21T10:35:36.686Z,28.36
2018-07-21T10:36:36.617Z,28.85
2018-07-21T10:38:29.668Z,27.98
2018-07-21T10:39:29.654Z,27.09
2018-07-21T10:41:22.893Z,27.31
2018-07-21T10:42:22.864Z,26.73
2018-07-21T10:44:15.909Z,26.42
2018-07-21T10:45:15.910Z,26.98
2018-07-21T10:47:08.739Z,27.19
2018-07-21T10:48:08.738Z,26.61
2018-07-21T10:50:01.572Z,26.91
2018-07-21T10:51:01.548Z,26.42
2018-07-21T10:52:54.607Z,26.54
2018-07-21T10:53:54.582Z,25.87
2018-07-21T10:55:47.654Z,25.46
2018-07-21T10:56:47.613Z,25.77
2018-07-21T10:58:40.477Z,26.21
2018-07-21T10:59:40.444Z,26.21
2018-07-21T11:01:33.298Z,25.85
2018-07-21T11:02:33.279Z,26.95
2018-07-21T11:04:26.110Z,25.21
2018-07-21T11:05:26.094Z,24.93
2018-07-21T11:07:18.946Z,22.77
2018-07-21T11:08:18.952Z,22.66
2018-07-21T11:10:12.113Z,24.11
2018-07-21T11:11:12.090Z,24.10
2018-07-21T11:13:05.159Z,25.28
2018-07-21T11:14:05.142Z,24.90
2018-07-21T11:15:58.351Z,23.43
2018-07-21T11:16:58.357Z,23.64
2018-07-21T11:18:51.399Z,23.16
2018-07-21T11:19:51.384Z,22.67
2018-07-21T11:21:44.200Z,22.86
2018-07-21T11:22:44.183Z,22.67
2018-07-21T11:24:37.279Z,22.59
2018-07-21T11:25:37.237Z,22.50
2018-07-21T11:27:30.300Z,22.60
2018-07-21T11:28:30.268Z,22.33
2018-07-21T11:30:23.116Z,21.04
2018-07-21T11:31:23.089Z,20.84
2018-07-21T11:33:16.052Z,22.19
2018-07-21T11:34:15.920Z,22.39
2018-07-21T11:36:09.353Z,22.09
2018-07-21T11:37:08.995Z,22.39
2018-07-21T11:39:02.217Z,23.93
2018-07-21T11:40:02.163Z,23.63
2018-07-21T11:41:55.241Z,23.80
2018-07-21T11:42:55.231Z,24.01
2018-07-21T11:44:48.500Z,24.21
2018-07-21T11:45:48.411Z,24.41
2018-07-21T11:47:41.277Z,24.79
2018-07-21T11:48:41.226Z,24.77
2018-07-21T11:50:34.270Z,25.94
2018-07-21T11:51:34.251Z,25.94
2018-07-21T11:53:27.169Z,24.87
2018-07-21T11:54:27.125Z,25.46
2018-07-21T11:56:20.152Z,25.77
2018-07-21T11:57:20.137Z,25.37
2018-07-21T11:59:13.227Z,25.17
2018-07-21T12:00:13.172Z,26.15
2018-07-21T12:02:06.116Z,26.05
2018-07-21T12:03:06.040Z,25.85
2018-07-21T12:04:59.080Z,26.14
2018-07-21T12:05:59.047Z,26.23
2018-07-21T12:07:52.090Z,27.37
2018-07-21T12:08:52.070Z,27.74
2018-07-21T12:10:45.238Z,28.43
2018-07-21T12:11:45.186Z,28.51
2018-07-21T12:13:38.385Z,29.46
2018-07-21T12:14:38.208Z,29.27
2018-07-21T12:16:31.155Z,29.56
2018-07-21T12:17:31.106Z,29.56
2018-07-21T12:19:24.161Z,29.17
2018-07-21T12:20:24.206Z,29.66
2018-07-21T12:22:16.996Z,28.69
2018-07-21T12:23:16.960Z,28.30
2018-07-21T12:25:10.204Z,28.69
2018-07-21T12:26:10.142Z,29.87
2018-07-21T12:28:02.968Z,28.69
2018-07-21T12:29:02.946Z,29.79
2018-07-21T12:30:55.995Z,28.12
2018-07-21T12:31:55.957Z,27.84
2018-07-21T12:33:48.832Z,27.59
2018-07-21T12:34:48.774Z,27.39
2018-07-21T12:36:41.827Z,25.74
2018-07-21T12:37:41.811Z,25.26
2018-07-21T12:39:34.647Z,24.86
2018-07-21T12:40:34.631Z,25.16
2018-07-21T12:42:27.491Z,25.74
2018-07-21T12:43:27.466Z,25.17
2018-07-21T12:45:20.567Z,24.97
2018-07-21T12:46:20.542Z,25.07
2018-07-21T12:48:13.435Z,24.77
2018-07-21T12:49:13.387Z,24.87
2018-07-21T12:51:06.732Z,24.40
2018-07-21T12:52:06.577Z,23.82
2018-07-21T12:53:59.414Z,23.62
2018-07-21T12:54:59.383Z,24.70
2018-07-21T12:56:52.247Z,23.72
2018-07-21T12:57:52.214Z,24.30
2018-07-21T12:59:45.034Z,24.41
2018-07-21T13:00:45.025Z,23.71
2018-07-21T13:02:38.242Z,24.29
2018-07-21T13:03:38.194Z,24.49
2018-07-21T13:05:31.272Z,24.00
2018-07-21T13:06:31.256Z,23.80
2018-07-21T13:08:24.502Z,23.42
2018-07-21T13:09:24.456Z,23.35
2018-07-21T13:11:28.399Z,22.85
2018-07-21T13:12:28.362Z,22.37
2018-07-21T13:14:21.227Z,22.47
2018-07-21T13:15:21.191Z,21.78
2018-07-21T13:17:14.253Z,22.56
2018-07-21T13:18:14.223Z,22.84
2018-07-21T13:20:07.089Z,23.72
2018-07-21T13:21:07.040Z,23.91
2018-07-21T13:23:00.246Z,23.15
2018-07-21T13:24:00.214Z,22.94
2018-07-21T13:25:53.326Z,22.46
2018-07-21T13:26:53.249Z,22.75
2018-07-21T13:28:46.468Z,22.75
2018-07-21T13:29:46.427Z,22.46
2018-07-21T13:31:39.339Z,23.22
2018-07-21T13:32:39.283Z,23.42
2018-07-21T13:34:32.325Z,23.71
2018-07-21T13:35:32.520Z,23.79
2018-07-21T13:37:25.377Z,25.82
2018-07-21T13:38:25.165Z,25.81
2018-07-21T13:40:18.022Z,26.20
2018-07-21T13:41:17.979Z,26.40
2018-07-21T13:43:10.825Z,26.40
2018-07-21T13:44:10.856Z,26.40
2018-07-21T13:46:03.650Z,26.51
2018-07-21T13:47:03.620Z,25.71
2018-07-21T13:48:56.454Z,26.27
2018-07-21T13:49:56.423Z,26.76
2018-07-21T13:51:49.280Z,26.78
2018-07-21T13:52:49.259Z,26.00
2018-07-21T13:54:42.116Z,25.72
2018-07-21T13:55:42.051Z,25.23
2018-07-21T13:57:34.914Z,24.86
2018-07-21T13:58:34.885Z,23.60
2018-07-21T14:00:27.954Z,23.68
2018-07-21T14:01:27.919Z,24.37
2018-07-21T14:03:20.993Z,24.46
2018-07-21T14:04:20.974Z,24.65
2018-07-21T14:06:14.080Z,24.93
2018-07-21T14:07:14.050Z,25.23
2018-07-21T14:09:07.340Z,25.90
2018-07-21T14:10:07.356Z,25.90
2018-07-21T14:12:00.399Z,26.28
2018-07-21T14:13:00.360Z,26.18
2018-07-21T14:14:53.190Z,26.37
2018-07-21T14:15:53.229Z,27.06
2018-07-21T14:17:46.241Z,26.67
2018-07-21T14:18:46.190Z,25.98
2018-07-21T14:20:39.272Z,26.26
2018-07-21T14:21:39.236Z,26.45
2018-07-21T14:23:32.088Z,26.55
2018-07-21T14:24:32.045Z,26.75
2018-07-21T14:26:25.125Z,26.06
2018-07-21T14:27:25.063Z,26.35
2018-07-21T14:29:18.249Z,26.07
2018-07-21T14:30:18.222Z,25.88
2018-07-21T14:32:11.122Z,25.88
2018-07-21T14:33:11.047Z,25.96
2018-07-21T14:35:03.889Z,26.44
2018-07-21T14:36:03.982Z,27.03
2018-07-21T14:37:56.947Z,27.31
2018-07-21T14:38:56.905Z,26.92
2018-07-21T14:40:50.064Z,27.50
2018-07-21T14:41:50.092Z,27.59
2018-07-21T14:43:43.086Z,27.59
2018-07-21T14:44:43.050Z,27.98
2018-07-21T14:46:35.934Z,28.44
2018-07-21T14:47:35.917Z,28.14
2018-07-21T14:49:29.101Z,28.33
2018-07-21T14:50:29.082Z,28.53
2018-07-21T14:52:21.909Z,28.63
2018-07-21T14:53:21.861Z,29.11
2018-07-21T14:55:15.098Z,28.63
2018-07-21T14:56:15.019Z,28.53
2018-07-21T14:58:08.101Z,28.63
2018-07-21T14:59:08.053Z,29.21
2018-07-21T15:01:01.249Z,29.41
2018-07-21T15:02:01.201Z,29.20
2018-07-21T15:03:54.246Z,29.08
2018-07-21T15:04:54.197Z,29.86
2018-07-21T15:06:47.535Z,29.49
2018-07-21T15:07:47.356Z,29.57
2018-07-21T15:09:40.544Z,29.86
2018-07-21T15:10:40.471Z,30.45
2018-07-21T15:12:33.734Z,30.74
2018-07-21T15:13:33.648Z,31.04
2018-07-21T15:15:26.717Z,30.73
2018-07-21T15:16:26.689Z,30.73
2018-07-21T15:18:19.869Z,30.54
2018-07-21T15:19:19.804Z,30.73
2018-07-21T15:21:12.858Z,30.62
2018-07-21T15:22:12.827Z,30.62
2018-07-21T15:24:05.957Z,30.81
2018-07-21T15:25:05.827Z,31.01
2018-07-21T15:26:58.885Z,31.49
2018-07-21T15:27:58.853Z,30.91
2018-07-21T15:29:51.917Z,30.80
2018-07-21T15:30:51.872Z,31.38
2018-07-21T15:32:45.123Z,31.48
2018-07-21T15:33:45.077Z,31.77
2018-07-21T15:35:37.936Z,32.06
2018-07-21T15:36:37.889Z,32.06
2018-07-21T15:38:30.917Z,32.26
2018-07-21T15:39:30.930Z,32.45
2018-07-21T15:41:23.893Z,32.06
2018-07-21T15:42:23.705Z,32.43
2018-07-21T15:44:16.946Z,33.02
2018-07-21T15:45:16.930Z,33.12
2018-07-21T15:47:10.105Z,33.22
2018-07-21T15:48:10.056Z,33.12
2018-07-21T15:50:03.174Z,32.92
2018-07-21T15:51:03.161Z,32.73
2018-07-21T15:52:56.364Z,33.31
2018-07-21T15:53:56.238Z,33.11
2018-07-21T15:55:49.279Z,34.66
2018-07-21T15:56:49.255Z,35.83
2018-07-21T15:58:42.241Z,37.10
2018-07-21T15:59:42.215Z,37.29
2018-07-21T16:01:35.180Z,38.64
2018-07-21T16:02:35.015Z,39.22
2018-07-21T16:04:28.037Z,39.69
2018-07-21T16:05:28.004Z,39.78
2018-07-21T16:07:20.841Z,40.75
2018-07-21T16:08:20.865Z,41.13
2018-07-21T16:10:14.045Z,41.80
2018-07-21T16:11:13.915Z,42.27
2018-07-21T16:13:06.936Z,42.49
2018-07-21T16:14:06.901Z,42.85
2018-07-21T16:15:59.924Z,43.15
2018-07-21T16:16:59.889Z,43.05
2018-07-21T16:18:52.704Z,43.34
2018-07-21T16:19:52.692Z,43.15
2018-07-21T16:21:45.711Z,43.24
2018-07-21T16:22:45.656Z,43.05
2018-07-21T16:24:38.706Z,43.34
2018-07-21T16:25:38.641Z,43.34
2018-07-21T16:27:31.481Z,43.44
2018-07-21T16:28:31.433Z,43.05
2018-07-21T16:30:24.451Z,43.34
2018-07-21T16:31:24.431Z,43.51
2018-07-21T16:33:17.450Z,43.82
2018-07-21T16:34:17.451Z,44.02
2018-07-21T16:36:10.231Z,44.70
2018-07-21T16:37:10.217Z,43.92
2018-07-21T16:39:03.320Z,44.02
2018-07-21T16:40:03.283Z,44.00
2018-07-21T16:41:56.127Z,44.31
2018-07-21T16:42:56.059Z,44.12
2018-07-21T16:44:49.082Z,44.02
2018-07-21T16:45:49.051Z,44.51
2018-07-21T16:47:42.135Z,44.31
2018-07-21T16:48:42.035Z,44.31
2018-07-21T16:50:35.061Z,44.78
2018-07-21T16:51:35.025Z,44.31
2018-07-21T16:53:27.865Z,44.21
2018-07-21T16:54:27.821Z,44.21
2018-07-21T16:56:20.706Z,44.29
2018-07-21T16:57:20.680Z,44.60
2018-07-21T16:59:13.711Z,44.70
2018-07-21T17:00:13.672Z,44.70
2018-07-21T17:02:06.668Z,44.89
2018-07-21T17:03:06.642Z,45.09
2018-07-21T17:04:59.829Z,44.60
2018-07-21T17:05:59.771Z,44.79
2018-07-21T17:07:52.785Z,44.60
2018-07-21T17:08:52.741Z,44.89
2018-07-21T17:10:45.587Z,45.09
2018-07-21T17:11:45.553Z,44.70
2018-07-21T17:13:38.501Z,44.99
2018-07-21T17:14:38.462Z,45.18
2018-07-21T17:16:31.325Z,46.06
2018-07-21T17:17:31.268Z,45.67
2018-07-21T17:19:24.434Z,46.06
2018-07-21T17:20:24.377Z,46.25
2018-07-21T17:22:17.215Z,45.67
2018-07-21T17:23:17.184Z,45.18
2018-07-21T17:25:10.196Z,44.89
2018-07-21T17:26:10.144Z,45.18
2018-07-21T17:28:03.164Z,44.89
2018-07-21T17:29:03.128Z,44.60
2018-07-21T17:30:56.303Z,45.09
2018-07-21T17:31:56.294Z,45.09
2018-07-21T17:33:49.246Z,45.57
2018-07-21T17:34:49.241Z,45.57
2018-07-21T17:36:42.232Z,45.98
2018-07-21T17:37:42.191Z,45.77
2018-07-21T17:39:35.050Z,46.47
2018-07-21T17:40:35.025Z,46.55
2018-07-21T17:42:28.064Z,47.42
2018-07-21T17:43:28.024Z,47.71
2018-07-21T17:45:20.878Z,48.10
2018-07-21T17:46:20.847Z,49.07
2018-07-21T17:48:13.908Z,48.68
2018-07-21T17:49:13.862Z,49.46
2018-07-21T17:51:06.863Z,49.34
2018-07-21T17:52:06.876Z,49.34
2018-07-21T17:53:59.837Z,49.54
2018-07-21T17:54:59.809Z,49.44
2018-07-21T17:56:52.943Z,50.48
2018-07-21T17:57:52.940Z,50.19
2018-07-21T17:59:45.947Z,50.38
2018-07-21T18:00:45.895Z,50.38
2018-07-21T18:02:39.195Z,50.80
2018-07-21T18:03:39.015Z,50.70
2018-07-21T18:05:31.976Z,51.09
2018-07-21T18:06:31.887Z,51.45
2018-07-21T18:08:24.830Z,51.75
2018-07-21T18:09:24.832Z,52.33
2018-07-21T18:11:17.628Z,52.62
2018-07-21T18:12:17.620Z,52.23
2018-07-21T18:14:10.517Z,52.72
2018-07-21T18:15:10.440Z,52.23
2018-07-21T18:17:03.277Z,52.13
2018-07-21T18:18:03.253Z,52.98
2018-07-21T18:19:56.275Z,53.37
2018-07-21T18:20:56.215Z,53.27
2018-07-21T18:22:49.207Z,53.17
2018-07-21T18:23:49.159Z,54.14
2018-07-21T18:25:42.253Z,55.99
2018-07-21T18:26:42.139Z,56.37
2018-07-21T18:28:35.165Z,57.34
2018-07-21T18:29:35.125Z,58.09
2018-07-21T18:31:28.356Z,58.87
2018-07-21T18:32:28.223Z,58.39
2018-07-21T18:34:21.275Z,58.87